sensor_id;sensor_type;location;lat;lon;timestamp;P1;durP1;ratioP1;P2;durP2;ratioP2
7231;SDS011;3657;49.630;11.018;2023-12-07T00:01:40;42.23;;;39.30;;
7231;SDS011;3657;49.630;11.018;2023-12-07T00:04:08;39.80;;;36.93;;
7231;SDS011;3657;49.630;11.018;2023-12-07T00:06:35;40.33;;;37.53;;
7231;SDS011;3657;49.630;11.018;2023-12-07T00:09:01;40.33;;;37.47;;
7231;SDS011;3657;49.630;11.018;2023-12-07T00:11:29;39.43;;;36.53;;
7231;SDS011;3657;49.630;11.018;2023-12-07T00:13:55;39.37;;;36.57;;
7231;SDS011;3657;49.630;11.018;2023-12-07T00:16:22;39.40;;;36.60;;
7231;SDS011;3657;49.630;11.018;2023-12-07T00:18:49;39.07;;;36.23;;
7231;SDS011;3657;49.630;11.018;2023-12-07T00:21:17;46.57;;;42.60;;
7231;SDS011;3657;49.630;11.018;2023-12-07T00:23:44;42.43;;;39.03;;
7231;SDS011;3657;49.630;11.018;2023-12-07T00:26:10;40.53;;;37.73;;
7231;SDS011;3657;49.630;11.018;2023-12-07T00:28:37;39.93;;;36.90;;
7231;SDS011;3657;49.630;11.018;2023-12-07T00:31:04;37.93;;;35.33;;
7231;SDS011;3657;49.630;11.018;2023-12-07T00:33:31;42.10;;;38.77;;
7231;SDS011;3657;49.630;11.018;2023-12-07T00:35:57;43.17;;;39.67;;
7231;SDS011;3657;49.630;11.018;2023-12-07T00:38:25;44.50;;;40.90;;
7231;SDS011;3657;49.630;11.018;2023-12-07T00:40:52;50.43;;;45.67;;
7231;SDS011;3657;49.630;11.018;2023-12-07T00:43:18;46.00;;;42.07;;
7231;SDS011;3657;49.630;11.018;2023-12-07T00:45:44;47.47;;;43.30;;
7231;SDS011;3657;49.630;11.018;2023-12-07T00:48:11;45.50;;;41.70;;
7231;SDS011;3657;49.630;11.018;2023-12-07T00:50:38;48.87;;;44.53;;
7231;SDS011;3657;49.630;11.018;2023-12-07T00:53:04;46.57;;;42.57;;
7231;SDS011;3657;49.630;11.018;2023-12-07T00:55:32;46.97;;;43.07;;
7231;SDS011;3657;49.630;11.018;2023-12-07T00:57:59;43.43;;;40.00;;
7231;SDS011;3657;49.630;11.018;2023-12-07T01:00:27;38.30;;;35.50;;
7231;SDS011;3657;49.630;11.018;2023-12-07T01:02:53;38.10;;;35.43;;
7231;SDS011;3657;49.630;11.018;2023-12-07T01:05:20;38.47;;;35.80;;
7231;SDS011;3657;49.630;11.018;2023-12-07T01:07:47;36.67;;;34.27;;
7231;SDS011;3657;49.630;11.018;2023-12-07T01:10:13;40.10;;;36.97;;
7231;SDS011;3657;49.630;11.018;2023-12-07T01:12:41;35.97;;;33.50;;
7231;SDS011;3657;49.630;11.018;2023-12-07T01:15:08;42.00;;;38.53;;
7231;SDS011;3657;49.630;11.018;2023-12-07T01:17:35;36.27;;;33.77;;
7231;SDS011;3657;49.630;11.018;2023-12-07T01:20:02;35.60;;;33.20;;
7231;SDS011;3657;49.630;11.018;2023-12-07T01:22:32;34.57;;;32.13;;
7231;SDS011;3657;49.630;11.018;2023-12-07T01:24:58;35.33;;;32.97;;
7231;SDS011;3657;49.630;11.018;2023-12-07T01:27:25;41.40;;;38.07;;
7231;SDS011;3657;49.630;11.018;2023-12-07T01:29:53;38.83;;;36.03;;
7231;SDS011;3657;49.630;11.018;2023-12-07T01:32:20;36.03;;;33.43;;
7231;SDS011;3657;49.630;11.018;2023-12-07T01:34:47;43.97;;;40.30;;
7231;SDS011;3657;49.630;11.018;2023-12-07T01:37:13;36.17;;;33.70;;
7231;SDS011;3657;49.630;11.018;2023-12-07T01:39:41;44.30;;;40.87;;
7231;SDS011;3657;49.630;11.018;2023-12-07T01:42:09;42.70;;;39.20;;
7231;SDS011;3657;49.630;11.018;2023-12-07T01:44:37;41.50;;;38.43;;
7231;SDS011;3657;49.630;11.018;2023-12-07T01:47:05;41.50;;;38.40;;
7231;SDS011;3657;49.630;11.018;2023-12-07T01:49:33;37.50;;;34.90;;
7231;SDS011;3657;49.630;11.018;2023-12-07T01:52:00;37.97;;;35.43;;
7231;SDS011;3657;49.630;11.018;2023-12-07T01:54:27;39.70;;;36.57;;
7231;SDS011;3657;49.630;11.018;2023-12-07T01:56:54;42.70;;;39.37;;
7231;SDS011;3657;49.630;11.018;2023-12-07T01:59:22;39.77;;;36.97;;
7231;SDS011;3657;49.630;11.018;2023-12-07T02:01:49;40.77;;;37.80;;
7231;SDS011;3657;49.630;11.018;2023-12-07T02:04:18;36.47;;;34.03;;
7231;SDS011;3657;49.630;11.018;2023-12-07T02:06:44;44.43;;;40.80;;
7231;SDS011;3657;49.630;11.018;2023-12-07T02:09:11;36.77;;;34.27;;
7231;SDS011;3657;49.630;11.018;2023-12-07T02:11:38;37.87;;;35.27;;
7231;SDS011;3657;49.630;11.018;2023-12-07T02:14:05;37.83;;;35.23;;
7231;SDS011;3657;49.630;11.018;2023-12-07T02:16:34;46.13;;;42.20;;
7231;SDS011;3657;49.630;11.018;2023-12-07T02:19:11;37.07;;;34.47;;
7231;SDS011;3657;49.630;11.018;2023-12-07T02:21:58;44.93;;;41.07;;
7231;SDS011;3657;49.630;11.018;2023-12-07T02:24:28;49.30;;;44.80;;
7231;SDS011;3657;49.630;11.018;2023-12-07T02:27:02;38.17;;;35.40;;
7231;SDS011;3657;49.630;11.018;2023-12-07T02:29:28;48.77;;;44.43;;
7231;SDS011;3657;49.630;11.018;2023-12-07T02:31:55;51.10;;;46.23;;
7231;SDS011;3657;49.630;11.018;2023-12-07T02:34:22;46.43;;;42.57;;
7231;SDS011;3657;49.630;11.018;2023-12-07T02:36:49;47.57;;;43.50;;
7231;SDS011;3657;49.630;11.018;2023-12-07T02:39:19;50.57;;;46.30;;
7231;SDS011;3657;49.630;11.018;2023-12-07T02:41:49;39.37;;;36.67;;
7231;SDS011;3657;49.630;11.018;2023-12-07T02:44:19;37.50;;;35.00;;
7231;SDS011;3657;49.630;11.018;2023-12-07T02:46:46;39.07;;;36.17;;
7231;SDS011;3657;49.630;11.018;2023-12-07T02:49:13;36.50;;;34.10;;
7231;SDS011;3657;49.630;11.018;2023-12-07T02:51:40;37.87;;;35.37;;
7231;SDS011;3657;49.630;11.018;2023-12-07T02:54:07;35.40;;;33.10;;
7231;SDS011;3657;49.630;11.018;2023-12-07T02:56:33;37.07;;;34.43;;
7231;SDS011;3657;49.630;11.018;2023-12-07T02:59:00;38.50;;;35.83;;
7231;SDS011;3657;49.630;11.018;2023-12-07T03:01:28;35.23;;;32.93;;
7231;SDS011;3657;49.630;11.018;2023-12-07T03:03:55;36.20;;;33.87;;
7231;SDS011;3657;49.630;11.018;2023-12-07T03:06:21;34.83;;;32.47;;
7231;SDS011;3657;49.630;11.018;2023-12-07T03:08:48;35.60;;;33.23;;
7231;SDS011;3657;49.630;11.018;2023-12-07T03:11:14;38.10;;;35.33;;
7231;SDS011;3657;49.630;11.018;2023-12-07T03:13:41;36.77;;;34.33;;
7231;SDS011;3657;49.630;11.018;2023-12-07T03:16:08;34.43;;;32.23;;
7231;SDS011;3657;49.630;11.018;2023-12-07T03:18:37;36.53;;;33.93;;
7231;SDS011;3657;49.630;11.018;2023-12-07T03:21:04;36.07;;;33.67;;
7231;SDS011;3657;49.630;11.018;2023-12-07T03:23:31;35.23;;;32.83;;
7231;SDS011;3657;49.630;11.018;2023-12-07T03:25:57;34.97;;;32.63;;
7231;SDS011;3657;49.630;11.018;2023-12-07T03:28:24;38.53;;;36.03;;
7231;SDS011;3657;49.630;11.018;2023-12-07T03:30:50;35.90;;;33.47;;
7231;SDS011;3657;49.630;11.018;2023-12-07T03:33:16;40.20;;;37.20;;
7231;SDS011;3657;49.630;11.018;2023-12-07T03:35:45;41.80;;;38.73;;
7231;SDS011;3657;49.630;11.018;2023-12-07T03:38:11;36.13;;;33.53;;
7231;SDS011;3657;49.630;11.018;2023-12-07T03:40:38;34.30;;;32.03;;
7231;SDS011;3657;49.630;11.018;2023-12-07T03:43:05;34.40;;;32.10;;
7231;SDS011;3657;49.630;11.018;2023-12-07T03:45:31;35.30;;;33.00;;
7231;SDS011;3657;49.630;11.018;2023-12-07T03:47:58;37.63;;;35.03;;
7231;SDS011;3657;49.630;11.018;2023-12-07T03:50:25;42.07;;;38.87;;
7231;SDS011;3657;49.630;11.018;2023-12-07T03:52:53;42.40;;;39.27;;
7231;SDS011;3657;49.630;11.018;2023-12-07T03:55:19;35.97;;;33.67;;
7231;SDS011;3657;49.630;11.018;2023-12-07T03:57:46;41.37;;;38.17;;
7231;SDS011;3657;49.630;11.018;2023-12-07T04:00:13;37.90;;;34.93;;
7231;SDS011;3657;49.630;11.018;2023-12-07T04:02:40;31.63;;;29.73;;
7231;SDS011;3657;49.630;11.018;2023-12-07T04:05:07;32.70;;;30.70;;
7231;SDS011;3657;49.630;11.018;2023-12-07T04:07:34;44.07;;;40.77;;
7231;SDS011;3657;49.630;11.018;2023-12-07T04:10:02;31.93;;;30.07;;
7231;SDS011;3657;49.630;11.018;2023-12-07T04:12:31;32.20;;;30.13;;
7231;SDS011;3657;49.630;11.018;2023-12-07T04:14:57;33.27;;;31.23;;
7231;SDS011;3657;49.630;11.018;2023-12-07T04:17:24;44.23;;;40.60;;
7231;SDS011;3657;49.630;11.018;2023-12-07T04:19:51;39.67;;;36.87;;
7231;SDS011;3657;49.630;11.018;2023-12-07T04:22:17;41.10;;;37.90;;
7231;SDS011;3657;49.630;11.018;2023-12-07T04:24:44;46.83;;;42.77;;
7231;SDS011;3657;49.630;11.018;2023-12-07T04:27:12;37.50;;;34.87;;
7231;SDS011;3657;49.630;11.018;2023-12-07T04:29:39;37.50;;;34.97;;
7231;SDS011;3657;49.630;11.018;2023-12-07T04:32:06;41.53;;;38.23;;
7231;SDS011;3657;49.630;11.018;2023-12-07T04:34:33;32.07;;;30.17;;
7231;SDS011;3657;49.630;11.018;2023-12-07T04:36:59;31.60;;;29.80;;
7231;SDS011;3657;49.630;11.018;2023-12-07T04:39:26;33.10;;;30.87;;
7231;SDS011;3657;49.630;11.018;2023-12-07T04:41:53;33.10;;;31.07;;
7231;SDS011;3657;49.630;11.018;2023-12-07T04:44:21;40.93;;;37.90;;
7231;SDS011;3657;49.630;11.018;2023-12-07T04:46:50;33.13;;;31.13;;
7231;SDS011;3657;49.630;11.018;2023-12-07T04:49:17;44.80;;;41.20;;
7231;SDS011;3657;49.630;11.018;2023-12-07T04:51:44;33.23;;;31.13;;
7231;SDS011;3657;49.630;11.018;2023-12-07T04:54:11;43.03;;;39.83;;
7231;SDS011;3657;49.630;11.018;2023-12-07T04:56:39;33.23;;;31.20;;
7231;SDS011;3657;49.630;11.018;2023-12-07T04:59:06;45.00;;;41.43;;
7231;SDS011;3657;49.630;11.018;2023-12-07T05:01:34;34.23;;;32.07;;
7231;SDS011;3657;49.630;11.018;2023-12-07T05:04:01;41.87;;;38.83;;
7231;SDS011;3657;49.630;11.018;2023-12-07T05:06:28;40.77;;;37.83;;
7231;SDS011;3657;49.630;11.018;2023-12-07T05:08:55;40.50;;;37.37;;
7231;SDS011;3657;49.630;11.018;2023-12-07T05:11:22;34.97;;;32.67;;
7231;SDS011;3657;49.630;11.018;2023-12-07T05:13:48;43.23;;;39.70;;
7231;SDS011;3657;49.630;11.018;2023-12-07T05:16:15;34.73;;;32.57;;
7231;SDS011;3657;49.630;11.018;2023-12-07T05:18:43;32.93;;;30.83;;
7231;SDS011;3657;49.630;11.018;2023-12-07T05:21:10;40.43;;;37.30;;
7231;SDS011;3657;49.630;11.018;2023-12-07T05:23:37;43.20;;;39.67;;
7231;SDS011;3657;49.630;11.018;2023-12-07T05:26:04;33.50;;;31.47;;
7231;SDS011;3657;49.630;11.018;2023-12-07T05:28:33;33.13;;;31.13;;
7231;SDS011;3657;49.630;11.018;2023-12-07T05:30:59;36.60;;;33.90;;
7231;SDS011;3657;49.630;11.018;2023-12-07T05:33:26;33.17;;;31.27;;
7231;SDS011;3657;49.630;11.018;2023-12-07T05:35:54;32.83;;;30.87;;
7231;SDS011;3657;49.630;11.018;2023-12-07T05:38:21;32.57;;;30.67;;
7231;SDS011;3657;49.630;11.018;2023-12-07T05:40:47;34.60;;;32.30;;
7231;SDS011;3657;49.630;11.018;2023-12-07T05:43:14;36.37;;;33.93;;
7231;SDS011;3657;49.630;11.018;2023-12-07T05:45:41;34.60;;;32.20;;
7231;SDS011;3657;49.630;11.018;2023-12-07T05:48:07;33.50;;;31.50;;
7231;SDS011;3657;49.630;11.018;2023-12-07T05:50:34;33.37;;;31.33;;
7231;SDS011;3657;49.630;11.018;2023-12-07T05:53:05;35.00;;;32.70;;
7231;SDS011;3657;49.630;11.018;2023-12-07T05:55:32;34.90;;;32.73;;
7231;SDS011;3657;49.630;11.018;2023-12-07T05:57:59;42.30;;;39.03;;
7231;SDS011;3657;49.630;11.018;2023-12-07T06:00:25;35.70;;;33.40;;
7231;SDS011;3657;49.630;11.018;2023-12-07T06:02:52;35.47;;;33.27;;
7231;SDS011;3657;49.630;11.018;2023-12-07T06:05:19;35.00;;;32.80;;
7231;SDS011;3657;49.630;11.018;2023-12-07T06:07:46;36.40;;;34.10;;
7231;SDS011;3657;49.630;11.018;2023-12-07T06:10:14;35.33;;;33.20;;
7231;SDS011;3657;49.630;11.018;2023-12-07T06:12:41;36.73;;;34.33;;
7231;SDS011;3657;49.630;11.018;2023-12-07T06:15:08;36.43;;;33.93;;
7231;SDS011;3657;49.630;11.018;2023-12-07T06:17:36;37.53;;;34.90;;
7231;SDS011;3657;49.630;11.018;2023-12-07T06:20:03;43.77;;;40.10;;
7231;SDS011;3657;49.630;11.018;2023-12-07T06:22:30;35.17;;;33.03;;
7231;SDS011;3657;49.630;11.018;2023-12-07T06:24:56;35.77;;;33.27;;
7231;SDS011;3657;49.630;11.018;2023-12-07T06:27:25;42.20;;;38.83;;
7231;SDS011;3657;49.630;11.018;2023-12-07T06:29:51;37.63;;;35.03;;
7231;SDS011;3657;49.630;11.018;2023-12-07T06:32:18;39.27;;;36.47;;
7231;SDS011;3657;49.630;11.018;2023-12-07T06:34:45;36.33;;;33.90;;
7231;SDS011;3657;49.630;11.018;2023-12-07T06:37:11;44.77;;;40.97;;
7231;SDS011;3657;49.630;11.018;2023-12-07T06:39:38;38.37;;;35.67;;
7231;SDS011;3657;49.630;11.018;2023-12-07T06:42:05;38.47;;;35.77;;
7231;SDS011;3657;49.630;11.018;2023-12-07T06:44:34;44.30;;;40.90;;
7231;SDS011;3657;49.630;11.018;2023-12-07T06:47:01;41.27;;;38.10;;
7231;SDS011;3657;49.630;11.018;2023-12-07T06:49:29;35.70;;;32.87;;
7231;SDS011;3657;49.630;11.018;2023-12-07T06:51:56;43.70;;;40.43;;
7231;SDS011;3657;49.630;11.018;2023-12-07T06:54:22;42.80;;;39.70;;
7231;SDS011;3657;49.630;11.018;2023-12-07T06:56:49;40.30;;;37.20;;
7231;SDS011;3657;49.630;11.018;2023-12-07T06:59:16;38.20;;;35.50;;
7231;SDS011;3657;49.630;11.018;2023-12-07T07:01:44;38.50;;;35.90;;
7231;SDS011;3657;49.630;11.018;2023-12-07T07:04:10;38.10;;;35.43;;
7231;SDS011;3657;49.630;11.018;2023-12-07T07:06:37;38.93;;;36.30;;
7231;SDS011;3657;49.630;11.018;2023-12-07T07:09:04;37.47;;;34.87;;
7231;SDS011;3657;49.630;11.018;2023-12-07T07:11:31;39.00;;;36.30;;
7231;SDS011;3657;49.630;11.018;2023-12-07T07:13:57;37.93;;;35.47;;
7231;SDS011;3657;49.630;11.018;2023-12-07T07:16:24;37.90;;;35.17;;
7231;SDS011;3657;49.630;11.018;2023-12-07T07:18:52;38.80;;;36.00;;
7231;SDS011;3657;49.630;11.018;2023-12-07T07:21:19;37.80;;;35.20;;
7231;SDS011;3657;49.630;11.018;2023-12-07T07:23:45;39.93;;;37.13;;
7231;SDS011;3657;49.630;11.018;2023-12-07T07:26:12;39.17;;;36.33;;
7231;SDS011;3657;49.630;11.018;2023-12-07T07:28:41;39.30;;;36.53;;
7231;SDS011;3657;49.630;11.018;2023-12-07T07:31:08;39.70;;;36.87;;
7231;SDS011;3657;49.630;11.018;2023-12-07T07:33:35;39.57;;;36.70;;
7231;SDS011;3657;49.630;11.018;2023-12-07T07:36:03;40.93;;;38.03;;
7231;SDS011;3657;49.630;11.018;2023-12-07T07:38:30;41.50;;;38.40;;
7231;SDS011;3657;49.630;11.018;2023-12-07T07:40:57;38.87;;;36.30;;
7231;SDS011;3657;49.630;11.018;2023-12-07T07:43:24;39.20;;;36.40;;
7231;SDS011;3657;49.630;11.018;2023-12-07T07:45:50;40.27;;;37.57;;
7231;SDS011;3657;49.630;11.018;2023-12-07T07:48:17;40.33;;;37.37;;
7231;SDS011;3657;49.630;11.018;2023-12-07T07:50:44;42.23;;;39.00;;
7231;SDS011;3657;49.630;11.018;2023-12-07T07:53:12;43.60;;;40.17;;
7231;SDS011;3657;49.630;11.018;2023-12-07T07:55:38;40.10;;;37.30;;
7231;SDS011;3657;49.630;11.018;2023-12-07T07:58:05;40.97;;;37.97;;
7231;SDS011;3657;49.630;11.018;2023-12-07T08:00:32;41.43;;;38.37;;
7231;SDS011;3657;49.630;11.018;2023-12-07T08:02:59;41.13;;;38.03;;
7231;SDS011;3657;49.630;11.018;2023-12-07T08:05:26;43.93;;;40.53;;
7231;SDS011;3657;49.630;11.018;2023-12-07T08:07:53;40.87;;;37.90;;
7231;SDS011;3657;49.630;11.018;2023-12-07T08:10:21;41.57;;;38.47;;
7231;SDS011;3657;49.630;11.018;2023-12-07T08:12:49;44.73;;;41.20;;
7231;SDS011;3657;49.630;11.018;2023-12-07T08:15:15;44.17;;;40.83;;
7231;SDS011;3657;49.630;11.018;2023-12-07T08:17:42;41.10;;;38.10;;
7231;SDS011;3657;49.630;11.018;2023-12-07T08:20:09;44.80;;;41.20;;
7231;SDS011;3657;49.630;11.018;2023-12-07T08:22:37;43.27;;;39.90;;
7231;SDS011;3657;49.630;11.018;2023-12-07T08:25:06;42.70;;;39.47;;
7231;SDS011;3657;49.630;11.018;2023-12-07T08:27:36;44.30;;;40.83;;
7231;SDS011;3657;49.630;11.018;2023-12-07T08:30:03;61.87;;;55.73;;
7231;SDS011;3657;49.630;11.018;2023-12-07T08:32:31;56.23;;;51.23;;
7231;SDS011;3657;49.630;11.018;2023-12-07T08:34:57;45.83;;;42.23;;
7231;SDS011;3657;49.630;11.018;2023-12-07T08:37:24;49.77;;;45.67;;
7231;SDS011;3657;49.630;11.018;2023-12-07T08:39:51;47.33;;;43.60;;
7231;SDS011;3657;49.630;11.018;2023-12-07T08:42:17;46.97;;;43.30;;
7231;SDS011;3657;49.630;11.018;2023-12-07T08:44:45;46.17;;;42.40;;
7231;SDS011;3657;49.630;11.018;2023-12-07T08:47:12;43.03;;;39.60;;
7231;SDS011;3657;49.630;11.018;2023-12-07T08:49:39;43.00;;;39.83;;
7231;SDS011;3657;49.630;11.018;2023-12-07T08:52:05;45.83;;;42.20;;
7231;SDS011;3657;49.630;11.018;2023-12-07T08:54:32;44.60;;;41.00;;
7231;SDS011;3657;49.630;11.018;2023-12-07T08:57:01;43.43;;;39.97;;
7231;SDS011;3657;49.630;11.018;2023-12-07T08:59:28;59.43;;;53.80;;
7231;SDS011;3657;49.630;11.018;2023-12-07T09:01:56;44.33;;;40.83;;
7231;SDS011;3657;49.630;11.018;2023-12-07T09:04:23;48.60;;;44.57;;
7231;SDS011;3657;49.630;11.018;2023-12-07T09:06:50;46.90;;;43.10;;
7231;SDS011;3657;49.630;11.018;2023-12-07T09:09:16;61.73;;;55.93;;
7231;SDS011;3657;49.630;11.018;2023-12-07T09:11:43;48.23;;;44.33;;
7231;SDS011;3657;49.630;11.018;2023-12-07T09:14:10;44.20;;;40.70;;
7231;SDS011;3657;49.630;11.018;2023-12-07T09:16:42;49.43;;;45.43;;
7231;SDS011;3657;49.630;11.018;2023-12-07T09:19:10;45.73;;;42.10;;
7231;SDS011;3657;49.630;11.018;2023-12-07T09:21:38;46.40;;;42.50;;
7231;SDS011;3657;49.630;11.018;2023-12-07T09:24:05;44.03;;;40.63;;
7231;SDS011;3657;49.630;11.018;2023-12-07T09:26:32;41.87;;;38.90;;
7231;SDS011;3657;49.630;11.018;2023-12-07T09:28:59;54.20;;;49.33;;
7231;SDS011;3657;49.630;11.018;2023-12-07T09:31:26;57.27;;;52.40;;
7231;SDS011;3657;49.630;11.018;2023-12-07T09:33:53;53.20;;;48.53;;
7231;SDS011;3657;49.630;11.018;2023-12-07T09:36:22;54.07;;;49.13;;
7231;SDS011;3657;49.630;11.018;2023-12-07T09:38:51;49.63;;;45.33;;
7231;SDS011;3657;49.630;11.018;2023-12-07T09:41:18;60.77;;;55.00;;
7231;SDS011;3657;49.630;11.018;2023-12-07T09:43:46;43.23;;;40.00;;
7231;SDS011;3657;49.630;11.018;2023-12-07T09:46:13;54.90;;;49.70;;
7231;SDS011;3657;49.630;11.018;2023-12-07T09:48:41;56.20;;;50.93;;
7231;SDS011;3657;49.630;11.018;2023-12-07T09:51:10;50.63;;;46.13;;
7231;SDS011;3657;49.630;11.018;2023-12-07T09:53:39;58.97;;;53.13;;
7231;SDS011;3657;49.630;11.018;2023-12-07T09:56:08;51.43;;;46.93;;
7231;SDS011;3657;49.630;11.018;2023-12-07T09:58:35;59.20;;;53.47;;
7231;SDS011;3657;49.630;11.018;2023-12-07T10:01:02;49.50;;;45.17;;
7231;SDS011;3657;49.630;11.018;2023-12-07T10:03:30;52.57;;;47.80;;
7231;SDS011;3657;49.630;11.018;2023-12-07T10:05:57;57.77;;;52.27;;
7231;SDS011;3657;49.630;11.018;2023-12-07T10:08:25;60.80;;;54.87;;
7231;SDS011;3657;49.630;11.018;2023-12-07T10:11:02;55.87;;;50.77;;
7231;SDS011;3657;49.630;11.018;2023-12-07T10:13:30;56.70;;;51.43;;
7231;SDS011;3657;49.630;11.018;2023-12-07T10:16:04;58.83;;;53.33;;
7231;SDS011;3657;49.630;11.018;2023-12-07T10:18:36;56.13;;;50.77;;
7231;SDS011;3657;49.630;11.018;2023-12-07T10:21:05;61.47;;;55.43;;
7231;SDS011;3657;49.630;11.018;2023-12-07T10:23:32;64.63;;;57.97;;
7231;SDS011;3657;49.630;11.018;2023-12-07T10:25:59;65.47;;;58.63;;
7231;SDS011;3657;49.630;11.018;2023-12-07T10:28:27;67.57;;;60.20;;
7231;SDS011;3657;49.630;11.018;2023-12-07T10:30:54;69.20;;;59.47;;
7231;SDS011;3657;49.630;11.018;2023-12-07T10:33:22;73.33;;;65.43;;
7231;SDS011;3657;49.630;11.018;2023-12-07T10:35:49;65.23;;;58.70;;
7231;SDS011;3657;49.630;11.018;2023-12-07T10:38:16;63.80;;;57.07;;
7231;SDS011;3657;49.630;11.018;2023-12-07T10:40:43;52.33;;;47.87;;
7231;SDS011;3657;49.630;11.018;2023-12-07T10:43:11;61.10;;;55.27;;
7231;SDS011;3657;49.630;11.018;2023-12-07T10:45:40;69.03;;;61.70;;
7231;SDS011;3657;49.630;11.018;2023-12-07T10:48:09;65.90;;;59.20;;
7231;SDS011;3657;49.630;11.018;2023-12-07T10:50:36;61.30;;;55.30;;
7231;SDS011;3657;49.630;11.018;2023-12-07T10:53:08;62.03;;;55.97;;
7231;SDS011;3657;49.630;11.018;2023-12-07T10:55:38;63.17;;;56.67;;
7231;SDS011;3657;49.630;11.018;2023-12-07T10:58:09;67.43;;;60.53;;
7231;SDS011;3657;49.630;11.018;2023-12-07T11:00:37;53.40;;;48.70;;
7231;SDS011;3657;49.630;11.018;2023-12-07T11:03:11;51.80;;;47.13;;
7231;SDS011;3657;49.630;11.018;2023-12-07T11:05:41;49.80;;;45.53;;
7231;SDS011;3657;49.630;11.018;2023-12-07T11:08:09;51.70;;;46.97;;
7231;SDS011;3657;49.630;11.018;2023-12-07T11:10:43;62.00;;;56.00;;
7231;SDS011;3657;49.630;11.018;2023-12-07T11:13:17;63.93;;;57.33;;
7231;SDS011;3657;49.630;11.018;2023-12-07T11:15:50;62.97;;;56.87;;
7231;SDS011;3657;49.630;11.018;2023-12-07T11:18:16;64.23;;;57.33;;
7231;SDS011;3657;49.630;11.018;2023-12-07T11:20:44;63.53;;;57.20;;
7231;SDS011;3657;49.630;11.018;2023-12-07T11:23:15;62.40;;;56.00;;
7231;SDS011;3657;49.630;11.018;2023-12-07T11:25:42;65.33;;;58.43;;
7231;SDS011;3657;49.630;11.018;2023-12-07T11:28:10;65.63;;;58.83;;
7231;SDS011;3657;49.630;11.018;2023-12-07T11:30:37;66.83;;;60.13;;
7231;SDS011;3657;49.630;11.018;2023-12-07T11:33:08;66.23;;;59.60;;
7231;SDS011;3657;49.630;11.018;2023-12-07T11:38:32;65.80;;;59.00;;
7231;SDS011;3657;49.630;11.018;2023-12-07T11:40:59;63.60;;;56.77;;
7231;SDS011;3657;49.630;11.018;2023-12-07T11:43:41;69.13;;;61.83;;
7231;SDS011;3657;49.630;11.018;2023-12-07T11:46:11;67.07;;;60.13;;
7231;SDS011;3657;49.630;11.018;2023-12-07T11:48:44;67.70;;;60.57;;
7231;SDS011;3657;49.630;11.018;2023-12-07T11:51:13;65.83;;;59.20;;
7231;SDS011;3657;49.630;11.018;2023-12-07T11:53:40;64.97;;;58.30;;
7231;SDS011;3657;49.630;11.018;2023-12-07T11:56:07;65.43;;;58.53;;
7231;SDS011;3657;49.630;11.018;2023-12-07T11:58:35;66.07;;;59.23;;
7231;SDS011;3657;49.630;11.018;2023-12-07T12:01:03;64.97;;;58.23;;
7231;SDS011;3657;49.630;11.018;2023-12-07T12:03:30;67.40;;;60.23;;
7231;SDS011;3657;49.630;11.018;2023-12-07T12:06:01;68.63;;;61.60;;
7231;SDS011;3657;49.630;11.018;2023-12-07T12:08:29;65.07;;;58.40;;
7231;SDS011;3657;49.630;11.018;2023-12-07T12:10:57;63.83;;;57.63;;
7231;SDS011;3657;49.630;11.018;2023-12-07T12:13:26;63.07;;;56.70;;
7231;SDS011;3657;49.630;11.018;2023-12-07T12:15:54;62.53;;;56.30;;
7231;SDS011;3657;49.630;11.018;2023-12-07T12:18:22;62.87;;;56.43;;
7231;SDS011;3657;49.630;11.018;2023-12-07T12:20:50;64.30;;;57.53;;
7231;SDS011;3657;49.630;11.018;2023-12-07T12:23:18;62.70;;;56.17;;
7231;SDS011;3657;49.630;11.018;2023-12-07T12:25:45;62.33;;;56.20;;
7231;SDS011;3657;49.630;11.018;2023-12-07T12:28:14;62.50;;;56.07;;
7231;SDS011;3657;49.630;11.018;2023-12-07T12:30:42;63.00;;;56.47;;
7231;SDS011;3657;49.630;11.018;2023-12-07T12:33:09;67.43;;;60.33;;
7231;SDS011;3657;49.630;11.018;2023-12-07T12:35:36;62.57;;;56.13;;
7231;SDS011;3657;49.630;11.018;2023-12-07T12:38:02;66.60;;;59.57;;
7231;SDS011;3657;49.630;11.018;2023-12-07T12:40:36;63.63;;;56.97;;
7231;SDS011;3657;49.630;11.018;2023-12-07T12:43:03;62.23;;;55.63;;
7231;SDS011;3657;49.630;11.018;2023-12-07T12:45:31;61.80;;;55.60;;
7231;SDS011;3657;49.630;11.018;2023-12-07T12:47:59;63.03;;;56.50;;
7231;SDS011;3657;49.630;11.018;2023-12-07T12:50:32;61.90;;;55.50;;
7231;SDS011;3657;49.630;11.018;2023-12-07T12:53:02;54.73;;;49.53;;
7231;SDS011;3657;49.630;11.018;2023-12-07T12:55:30;55.87;;;50.67;;
7231;SDS011;3657;49.630;11.018;2023-12-07T12:57:59;57.53;;;52.13;;
7231;SDS011;3657;49.630;11.018;2023-12-07T13:00:28;57.03;;;51.70;;
7231;SDS011;3657;49.630;11.018;2023-12-07T13:02:55;55.53;;;50.43;;
7231;SDS011;3657;49.630;11.018;2023-12-07T13:05:22;53.53;;;48.63;;
7231;SDS011;3657;49.630;11.018;2023-12-07T13:07:49;48.87;;;44.67;;
7231;SDS011;3657;49.630;11.018;2023-12-07T13:10:15;49.20;;;44.93;;
7231;SDS011;3657;49.630;11.018;2023-12-07T13:12:42;47.37;;;43.00;;
7231;SDS011;3657;49.630;11.018;2023-12-07T13:15:11;48.07;;;43.73;;
7231;SDS011;3657;49.630;11.018;2023-12-07T13:17:38;39.33;;;36.40;;
7231;SDS011;3657;49.630;11.018;2023-12-07T13:20:05;36.73;;;34.10;;
7231;SDS011;3657;49.630;11.018;2023-12-07T13:22:35;42.80;;;39.27;;
7231;SDS011;3657;49.630;11.018;2023-12-07T13:25:02;37.03;;;34.37;;
7231;SDS011;3657;49.630;11.018;2023-12-07T13:27:29;39.00;;;36.10;;
7231;SDS011;3657;49.630;11.018;2023-12-07T13:29:55;35.70;;;33.20;;
7231;SDS011;3657;49.630;11.018;2023-12-07T13:32:24;33.87;;;31.63;;
7231;SDS011;3657;49.630;11.018;2023-12-07T13:34:50;36.37;;;33.70;;
7231;SDS011;3657;49.630;11.018;2023-12-07T13:37:17;37.93;;;35.23;;
7231;SDS011;3657;49.630;11.018;2023-12-07T13:39:46;35.23;;;33.13;;
7231;SDS011;3657;49.630;11.018;2023-12-07T13:42:17;36.73;;;34.07;;
7231;SDS011;3657;49.630;11.018;2023-12-07T13:44:44;38.03;;;35.37;;
7231;SDS011;3657;49.630;11.018;2023-12-07T13:47:11;37.07;;;34.43;;
7231;SDS011;3657;49.630;11.018;2023-12-07T13:49:39;39.97;;;36.33;;
7231;SDS011;3657;49.630;11.018;2023-12-07T13:52:05;39.97;;;36.90;;
7231;SDS011;3657;49.630;11.018;2023-12-07T13:54:32;40.37;;;37.40;;
7231;SDS011;3657;49.630;11.018;2023-12-07T13:56:59;40.00;;;36.83;;
7231;SDS011;3657;49.630;11.018;2023-12-07T13:59:25;38.57;;;35.70;;
7231;SDS011;3657;49.630;11.018;2023-12-07T14:01:52;40.90;;;37.80;;
7231;SDS011;3657;49.630;11.018;2023-12-07T14:04:20;40.53;;;37.43;;
7231;SDS011;3657;49.630;11.018;2023-12-07T14:06:48;42.53;;;39.13;;
7231;SDS011;3657;49.630;11.018;2023-12-07T14:09:16;41.17;;;38.07;;
7231;SDS011;3657;49.630;11.018;2023-12-07T14:11:43;39.90;;;36.87;;
7231;SDS011;3657;49.630;11.018;2023-12-07T14:14:10;42.07;;;38.97;;
7231;SDS011;3657;49.630;11.018;2023-12-07T14:16:38;40.93;;;37.87;;
7231;SDS011;3657;49.630;11.018;2023-12-07T14:19:04;45.83;;;42.13;;
7231;SDS011;3657;49.630;11.018;2023-12-07T14:21:31;44.27;;;40.73;;
7231;SDS011;3657;49.630;11.018;2023-12-07T14:23:59;43.97;;;40.30;;
7231;SDS011;3657;49.630;11.018;2023-12-07T14:26:26;44.60;;;41.03;;
7231;SDS011;3657;49.630;11.018;2023-12-07T14:28:53;44.13;;;40.53;;
7231;SDS011;3657;49.630;11.018;2023-12-07T14:31:20;46.90;;;42.83;;
7231;SDS011;3657;49.630;11.018;2023-12-07T14:33:47;42.13;;;38.97;;
7231;SDS011;3657;49.630;11.018;2023-12-07T14:36:13;46.07;;;42.37;;
7231;SDS011;3657;49.630;11.018;2023-12-07T14:38:40;44.03;;;40.43;;